createdAt,value
2022-10-15T00:00:22.077Z,100.00
2022-10-15T00:02:50.492Z,100.00
2022-10-15T00:05:18.516Z,100.00
2022-10-15T00:07:46.387Z,100.00
2022-10-15T00:10:14.785Z,100.00
2022-10-15T00:12:43.068Z,100.00
2022-10-15T00:15:11.867Z,100.00
2022-10-15T00:17:41.401Z,100.00
2022-10-15T00:20:11.653Z,100.00
2022-10-15T00:22:40.109Z,100.00
2022-10-15T00:25:09.222Z,100.00
2022-10-15T00:27:38.187Z,100.00
2022-10-15T00:30:07.305Z,100.00
2022-10-15T00:32:35.452Z,100.00
2022-10-15T00:35:05.180Z,100.00
2022-10-15T00:37:33.009Z,100.00
2022-10-15T00:42:33.648Z,100.00
2022-10-15T00:45:01.909Z,100.00
2022-10-15T00:47:36.219Z,100.00
2022-10-15T00:50:09.137Z,100.00
2022-10-15T00:52:47.081Z,100.00
2022-10-15T00:55:17.371Z,100.00
2022-10-15T00:57:47.963Z,100.00
2022-10-15T01:00:17.118Z,100.00
2022-10-15T01:02:46.264Z,100.00
2022-10-15T01:05:17.658Z,100.00
2022-10-15T01:07:45.535Z,100.00
2022-10-15T01:10:13.859Z,100.00
2022-10-15T01:12:58.010Z,100.00
2022-10-15T01:15:30.483Z,100.00
2022-10-15T01:18:02.607Z,100.00
2022-10-15T01:20:51.570Z,100.00
2022-10-15T01:23:55.044Z,100.00
2022-10-15T01:27:00.186Z,100.00
2022-10-15T01:29:47.828Z,100.00
2022-10-15T01:32:22.496Z,100.00
2022-10-15T01:34:57.680Z,100.00
2022-10-15T01:37:30.396Z,100.00
2022-10-15T01:40:05.321Z,100.00
2022-10-15T01:42:37.643Z,100.00
2022-10-15T01:45:11.104Z,100.00
2022-10-15T01:47:47.487Z,100.00
2022-10-15T01:50:18.070Z,100.00
2022-10-15T01:52:46.541Z,100.00
2022-10-15T01:55:18.111Z,100.00
2022-10-15T01:57:47.280Z,100.00
2022-10-15T02:00:15.535Z,100.00
2022-10-15T02:02:44.819Z,100.00
2022-10-15T02:05:19.109Z,100.00
2022-10-15T02:07:54.800Z,100.00
2022-10-15T02:10:29.012Z,100.00
2022-10-15T02:13:09.772Z,100.00
2022-10-15T02:15:45.889Z,100.00
2022-10-15T02:18:19.843Z,100.00
2022-10-15T02:20:54.242Z,100.00
2022-10-15T02:23:25.681Z,100.00
2022-10-15T02:25:54.524Z,100.00
2022-10-15T02:28:25.827Z,100.00
2022-10-15T02:30:54.276Z,100.00
2022-10-15T02:33:25.404Z,100.00
2022-10-15T02:35:54.074Z,100.00
2022-10-15T02:38:26.125Z,100.00
2022-10-15T02:40:55.032Z,100.00
2022-10-15T02:43:23.712Z,100.00
2022-10-15T02:45:51.625Z,100.00
2022-10-15T02:48:21.810Z,100.00
2022-10-15T02:50:51.055Z,100.00
2022-10-15T02:53:18.912Z,100.00
2022-10-15T02:55:47.094Z,100.00
2022-10-15T02:58:14.961Z,100.00
2022-10-15T03:00:42.854Z,100.00
2022-10-15T03:03:11.676Z,100.00
2022-10-15T03:05:39.670Z,100.00
2022-10-15T03:08:08.897Z,100.00
2022-10-15T03:10:36.898Z,100.00
2022-10-15T03:13:05.331Z,100.00
2022-10-15T03:15:33.607Z,100.00
2022-10-15T03:18:01.622Z,100.00
2022-10-15T03:20:29.536Z,100.00
2022-10-15T03:22:57.414Z,100.00
2022-10-15T03:25:26.657Z,100.00
2022-10-15T03:27:54.515Z,100.00
2022-10-15T03:30:22.404Z,100.00
2022-10-15T03:32:50.338Z,100.00
2022-10-15T03:35:18.447Z,100.00
2022-10-15T03:37:46.287Z,100.00
2022-10-15T03:40:14.788Z,100.00
2022-10-15T03:42:44.096Z,100.00
2022-10-15T03:45:12.387Z,100.00
2022-10-15T03:47:40.248Z,100.00
2022-10-15T03:50:08.705Z,100.00
2022-10-15T03:52:37.780Z,100.00
2022-10-15T03:55:06.794Z,100.00
2022-10-15T03:57:37.175Z,100.00
2022-10-15T04:00:09.568Z,100.00
2022-10-15T04:02:37.438Z,100.00
2022-10-15T04:05:05.995Z,100.00
2022-10-15T04:07:33.943Z,100.00
2022-10-15T04:10:01.790Z,100.00
2022-10-15T04:12:29.650Z,100.00
2022-10-15T04:14:57.503Z,100.00
2022-10-15T04:17:26.784Z,100.00
2022-10-15T04:19:54.635Z,100.00
2022-10-15T04:22:22.726Z,100.00
2022-10-15T04:24:51.177Z,100.00
2022-10-15T04:27:19.127Z,100.00
2022-10-15T04:29:48.473Z,100.00
2022-10-15T04:32:16.995Z,100.00
2022-10-15T04:34:47.391Z,100.00
2022-10-15T04:37:15.436Z,100.00
2022-10-15T04:39:43.263Z,100.00
2022-10-15T04:42:11.199Z,100.00
2022-10-15T04:44:39.061Z,100.00
2022-10-15T04:47:06.911Z,100.00
2022-10-15T04:49:34.768Z,100.00
2022-10-15T04:52:04.187Z,100.00
2022-10-15T04:54:32.105Z,100.00
2022-10-15T04:57:00.061Z,100.00
2022-10-15T04:59:27.922Z,100.00
2022-10-15T05:01:55.865Z,100.00
2022-10-15T05:04:23.754Z,100.00
2022-10-15T05:06:51.604Z,100.00
2022-10-15T05:09:20.947Z,100.00
2022-10-15T05:11:48.776Z,100.00
2022-10-15T05:14:16.625Z,100.00
2022-10-15T05:16:44.674Z,100.00
2022-10-15T05:19:12.787Z,100.00
2022-10-15T05:21:41.043Z,100.00
2022-10-15T05:24:08.984Z,100.00
2022-10-15T05:26:38.423Z,100.00
2022-10-15T05:29:06.294Z,100.00
2022-10-15T05:31:34.766Z,100.00
2022-10-15T05:34:08.224Z,100.00
2022-10-15T05:36:36.987Z,100.00
2022-10-15T05:39:07.138Z,100.00
2022-10-15T05:41:35.077Z,100.00
2022-10-15T05:44:04.664Z,100.00
2022-10-15T05:46:32.582Z,100.00
2022-10-15T05:49:00.782Z,100.00
2022-10-15T05:51:29.225Z,100.00
2022-10-15T05:53:58.448Z,100.00
2022-10-15T05:56:27.190Z,100.00
2022-10-15T05:58:55.400Z,100.00
2022-10-15T06:01:24.879Z,100.00
2022-10-15T06:03:52.943Z,100.00
2022-10-15T06:06:22.896Z,100.00
2022-10-15T06:08:53.342Z,100.00
2022-10-15T06:11:21.585Z,100.00
2022-10-15T06:13:49.539Z,100.00
2022-10-15T06:16:22.539Z,100.00
2022-10-15T06:18:54.535Z,100.00
2022-10-15T06:21:22.741Z,100.00
2022-10-15T06:23:50.624Z,100.00
2022-10-15T06:26:18.596Z,100.00
2022-10-15T06:28:46.480Z,100.00
2022-10-15T06:31:14.440Z,100.00
2022-10-15T06:33:42.288Z,100.00
2022-10-15T06:36:13.753Z,100.00
2022-10-15T06:38:44.142Z,100.00
2022-10-15T06:41:12.296Z,100.00
2022-10-15T06:43:40.509Z,100.00
2022-10-15T06:46:08.398Z,100.00
2022-10-15T06:48:36.482Z,100.00
2022-10-15T06:51:05.623Z,100.00
2022-10-15T06:53:35.180Z,100.00
2022-10-15T06:56:04.286Z,100.00
2022-10-15T06:58:32.165Z,100.00
2022-10-15T07:01:03.473Z,95.72
2022-10-15T07:03:31.343Z,91.90
2022-10-15T07:06:03.589Z,89.01
2022-10-15T07:08:31.521Z,85.17
2022-10-15T07:11:02.648Z,85.28
2022-10-15T07:13:30.839Z,82.44
2022-10-15T07:15:58.704Z,83.21
2022-10-15T07:18:26.562Z,84.97
2022-10-15T07:20:54.438Z,84.98
2022-10-15T07:23:25.522Z,85.35
2022-10-15T07:25:56.087Z,83.54
2022-10-15T07:28:25.500Z,82.59
2022-10-15T07:30:53.720Z,79.36
2022-10-15T07:33:21.756Z,76.53
2022-10-15T07:35:49.584Z,77.42
2022-10-15T07:38:17.984Z,76.37
2022-10-15T07:40:46.028Z,74.60
2022-10-15T07:43:14.164Z,74.05
2022-10-15T07:45:48.757Z,73.03
2022-10-15T07:48:16.795Z,74.52
2022-10-15T07:50:44.704Z,74.66
2022-10-15T07:53:12.671Z,71.18
2022-10-15T07:55:40.508Z,70.91
2022-10-15T07:58:08.857Z,72.66
2022-10-15T08:00:36.774Z,74.69
2022-10-15T08:03:06.080Z,77.81
2022-10-15T08:05:35.147Z,74.80
2022-10-15T08:08:03.450Z,76.10
2022-10-15T08:10:31.335Z,76.85
2022-10-15T08:12:59.183Z,77.03
2022-10-15T08:15:27.074Z,76.56
2022-10-15T08:17:54.947Z,70.96
2022-10-15T08:20:24.192Z,71.49
2022-10-15T08:22:52.045Z,69.24
2022-10-15T08:25:19.931Z,69.30
2022-10-15T08:27:47.819Z,67.81
2022-10-15T08:30:15.944Z,65.03
2022-10-15T08:32:43.820Z,66.62
2022-10-15T08:35:11.686Z,65.22
2022-10-15T08:37:40.919Z,62.72
2022-10-15T08:40:11.202Z,63.57
2022-10-15T08:42:42.831Z,61.99
2022-10-15T08:45:15.173Z,63.65
2022-10-15T08:47:47.596Z,62.96
2022-10-15T08:50:27.686Z,61.12
2022-10-15T08:53:00.132Z,62.45
2022-10-15T08:55:33.595Z,63.30
2022-10-15T08:58:08.129Z,63.21
2022-10-15T09:00:42.191Z,64.90
2022-10-15T09:03:25.392Z,61.82
2022-10-15T09:06:02.039Z,61.52
2022-10-15T09:08:38.133Z,61.07
2022-10-15T09:11:13.440Z,63.19
2022-10-15T09:13:44.425Z,62.89
2022-10-15T09:16:17.552Z,61.75
2022-10-15T09:18:48.552Z,60.86
2022-10-15T09:21:17.505Z,59.78
2022-10-15T09:23:46.991Z,59.11
2022-10-15T09:26:26.305Z,59.42
2022-10-15T09:29:04.511Z,60.72
2022-10-15T09:31:41.193Z,62.35
2022-10-15T09:34:16.137Z,61.17
2022-10-15T09:36:50.994Z,57.75
2022-10-15T09:39:44.751Z,58.34
2022-10-15T09:42:27.205Z,58.97
2022-10-15T09:44:58.783Z,56.18
2022-10-15T09:47:28.886Z,54.78
2022-10-15T09:49:56.772Z,54.88
2022-10-15T09:52:36.416Z,52.37
2022-10-15T09:55:11.871Z,51.29
2022-10-15T09:57:41.295Z,52.50
2022-10-15T10:00:11.820Z,52.25
2022-10-15T10:02:39.766Z,53.13
2022-10-15T10:05:21.519Z,52.61
2022-10-15T10:07:49.349Z,51.72
2022-10-15T10:10:27.904Z,52.38
2022-10-15T10:12:57.140Z,51.54
2022-10-15T10:15:34.267Z,51.12
2022-10-15T10:18:02.395Z,49.23
2022-10-15T10:20:31.877Z,50.03
2022-10-15T10:23:01.324Z,50.70
2022-10-15T10:25:42.475Z,50.36
2022-10-15T10:28:21.910Z,48.36
2022-10-15T10:31:03.727Z,47.93
2022-10-15T10:33:35.928Z,47.29
2022-10-15T10:36:06.112Z,47.33
2022-10-15T10:38:36.071Z,47.08
2022-10-15T10:41:09.801Z,44.77
2022-10-15T10:43:39.600Z,45.30
2022-10-15T10:46:18.154Z,45.78
2022-10-15T10:48:47.711Z,47.53
2022-10-15T10:51:19.408Z,48.61
2022-10-15T10:53:54.520Z,49.47
2022-10-15T10:56:28.862Z,50.56
2022-10-15T10:59:00.169Z,50.34
2022-10-15T11:01:29.270Z,50.56
2022-10-15T11:03:57.541Z,50.51
2022-10-15T11:06:57.804Z,52.25
2022-10-15T11:09:47.931Z,53.29
2022-10-15T11:12:36.413Z,52.21
2022-10-15T11:15:18.956Z,51.53
2022-10-15T11:17:53.264Z,50.95
2022-10-15T11:20:39.023Z,50.50
2022-10-15T11:23:29.716Z,51.11
2022-10-15T11:26:05.913Z,52.25
2022-10-15T11:28:51.326Z,52.38
2022-10-15T11:31:27.720Z,52.86
2022-10-15T11:34:17.260Z,52.84
2022-10-15T11:36:56.315Z,52.90
2022-10-15T11:39:53.608Z,53.15
2022-10-15T11:42:26.821Z,51.61
2022-10-15T11:45:06.772Z,50.76
2022-10-15T11:47:48.585Z,50.20
2022-10-15T11:50:27.705Z,50.85
2022-10-15T11:53:10.404Z,51.92
2022-10-15T11:55:42.344Z,53.11
2022-10-15T11:58:16.389Z,52.72
2022-10-15T12:00:51.286Z,52.63
2022-10-15T12:03:24.069Z,54.38
2022-10-15T12:05:55.682Z,54.83
2022-10-15T12:08:27.763Z,54.95
2022-10-15T12:11:05.775Z,54.65
2022-10-15T12:13:41.429Z,54.73
2022-10-15T12:16:20.840Z,55.61
2022-10-15T12:18:56.466Z,54.90
2022-10-15T12:21:39.552Z,55.26
2022-10-15T12:24:47.705Z,54.31
2022-10-15T12:27:24.038Z,54.36
2022-10-15T12:29:54.160Z,55.25
2022-10-15T12:32:26.456Z,54.90
2022-10-15T12:34:58.340Z,56.17
2022-10-15T12:37:29.143Z,56.55
2022-10-15T12:39:59.833Z,56.59
2022-10-15T12:42:31.806Z,56.57
2022-10-15T12:45:02.761Z,56.28
2022-10-15T12:47:50.465Z,57.26
2022-10-15T12:50:20.625Z,58.00
2022-10-15T12:52:57.860Z,58.29
2022-10-15T12:55:29.807Z,57.30
2022-10-15T12:58:00.578Z,56.50
2022-10-15T13:00:32.231Z,57.50
2022-10-15T13:03:12.229Z,58.58
2022-10-15T13:05:40.924Z,57.01
2022-10-15T13:08:16.120Z,55.33
2022-10-15T13:10:50.985Z,55.25
2022-10-15T13:13:22.301Z,55.44
2022-10-15T13:15:58.793Z,56.96
2022-10-15T13:18:31.445Z,57.76
2022-10-15T13:20:59.970Z,57.57
2022-10-15T13:23:30.458Z,57.33
2022-10-15T13:26:19.876Z,57.24
2022-10-15T13:28:48.988Z,57.12
2022-10-15T13:31:23.577Z,57.49
2022-10-15T13:34:00.483Z,57.29
2022-10-15T13:36:31.944Z,56.57
2022-10-15T13:39:03.716Z,56.83
2022-10-15T13:41:34.880Z,57.12
2022-10-15T13:44:03.183Z,58.06
2022-10-15T13:46:33.574Z,57.07
2022-10-15T13:49:10.176Z,57.91
2022-10-15T13:51:41.494Z,57.79
2022-10-15T13:54:12.884Z,58.36
2022-10-15T13:56:47.894Z,59.00
2022-10-15T13:59:20.288Z,58.93
2022-10-15T14:01:50.796Z,59.23
2022-10-15T14:04:21.230Z,59.45
2022-10-15T14:09:35.917Z,59.57
2022-10-15T14:12:06.901Z,60.41
2022-10-15T14:14:36.695Z,59.79
2022-10-15T14:17:06.844Z,60.56
2022-10-15T14:19:38.285Z,60.29
2022-10-15T14:22:07.060Z,60.17
2022-10-15T14:24:36.798Z,59.95
2022-10-15T14:27:07.407Z,60.53
2022-10-15T14:29:43.954Z,60.32
2022-10-15T14:32:24.356Z,60.67
2022-10-15T14:34:55.451Z,60.52
2022-10-15T14:37:44.278Z,60.92
2022-10-15T14:40:30.151Z,61.08
2022-10-15T14:43:06.590Z,61.04
2022-10-15T14:45:41.951Z,61.60
2022-10-15T14:48:12.378Z,62.30
2022-10-15T14:50:44.904Z,62.80
2022-10-15T14:53:19.533Z,63.04
2022-10-15T14:55:52.354Z,63.44
2022-10-15T14:58:22.515Z,63.73
2022-10-15T15:00:57.172Z,63.38
2022-10-15T15:03:30.816Z,63.49
2022-10-15T15:06:00.096Z,63.74
2022-10-15T15:08:28.332Z,63.90
2022-10-15T15:10:58.861Z,64.48
2022-10-15T15:13:28.793Z,64.45
2022-10-15T15:15:56.733Z,64.89
2022-10-15T15:18:25.091Z,64.81
2022-10-15T15:20:52.980Z,65.25
2022-10-15T15:23:25.040Z,65.87
2022-10-15T15:25:54.157Z,66.08
2022-10-15T15:28:24.322Z,66.19
2022-10-15T15:30:58.034Z,66.22
2022-10-15T15:33:26.517Z,66.66
2022-10-15T15:35:56.551Z,67.15
2022-10-15T15:38:30.835Z,67.90
2022-10-15T15:41:03.384Z,68.16
2022-10-15T15:43:31.734Z,68.96
2022-10-15T15:45:59.587Z,69.81
2022-10-15T15:48:27.445Z,70.13
2022-10-15T15:50:56.889Z,70.19
2022-10-15T15:53:26.120Z,70.88
2022-10-15T15:55:54.019Z,70.84
2022-10-15T15:58:21.882Z,71.50
2022-10-15T16:00:49.747Z,71.99
2022-10-15T16:03:17.632Z,72.19
2022-10-15T16:05:45.804Z,73.11
2022-10-15T16:08:14.353Z,73.96
2022-10-15T16:10:44.788Z,74.96
2022-10-15T16:13:12.641Z,76.13
2022-10-15T16:15:40.480Z,76.57
2022-10-15T16:18:08.518Z,76.80
2022-10-15T16:20:39.525Z,77.09
2022-10-15T16:23:07.529Z,77.81
2022-10-15T16:25:35.449Z,77.79
2022-10-15T16:28:04.761Z,78.38
2022-10-15T16:30:32.684Z,78.92
2022-10-15T16:33:00.651Z,79.67
2022-10-15T16:35:28.576Z,79.95
2022-10-15T16:37:56.539Z,80.77
2022-10-15T16:40:24.503Z,80.60
2022-10-15T16:42:52.367Z,80.58
2022-10-15T16:45:21.608Z,81.13
2022-10-15T16:47:49.936Z,81.07
2022-10-15T16:50:18.061Z,81.83
2022-10-15T16:52:46.064Z,82.40
2022-10-15T16:55:13.935Z,82.53
2022-10-15T16:57:42.245Z,83.24
2022-10-15T17:00:11.424Z,84.42
2022-10-15T17:02:40.793Z,84.64
2022-10-15T17:05:09.655Z,84.59
2022-10-15T17:07:37.560Z,85.55
2022-10-15T17:10:08.561Z,85.82
2022-10-15T17:12:38.963Z,86.23
2022-10-15T17:15:08.182Z,86.22
2022-10-15T17:17:37.237Z,86.86
2022-10-15T17:20:09.154Z,86.72
2022-10-15T17:22:37.602Z,87.25
2022-10-15T17:25:06.183Z,87.74
2022-10-15T17:27:35.727Z,87.35
2022-10-15T17:30:03.681Z,87.77
2022-10-15T17:32:31.537Z,88.81
2022-10-15T17:35:03.796Z,88.60
2022-10-15T17:40:07.447Z,89.17
2022-10-15T17:42:36.685Z,89.51
2022-10-15T17:45:05.220Z,90.17
2022-10-15T17:47:33.093Z,90.15
2022-10-15T17:50:00.937Z,90.12
2022-10-15T17:52:28.792Z,90.98
2022-10-15T17:54:58.023Z,91.90
2022-10-15T17:57:26.171Z,91.36
2022-10-15T17:59:54.309Z,91.62
2022-10-15T18:02:22.208Z,93.46
2022-10-15T18:04:50.115Z,93.21
2022-10-15T18:07:19.859Z,93.47
2022-10-15T18:09:47.753Z,94.54
2022-10-15T18:12:17.066Z,95.51
2022-10-15T18:14:44.907Z,95.97
2022-10-15T18:17:13.050Z,96.46
2022-10-15T18:19:41.031Z,97.55
2022-10-15T18:22:08.871Z,97.02
2022-10-15T18:24:36.754Z,96.99
2022-10-15T18:27:04.815Z,96.73
2022-10-15T18:29:35.981Z,97.39
2022-10-15T18:32:04.037Z,97.37
2022-10-15T18:34:33.308Z,98.01
2022-10-15T18:37:01.229Z,98.48
2022-10-15T18:39:29.097Z,100.00
2022-10-15T18:41:56.966Z,100.00
2022-10-15T18:44:25.443Z,100.00
2022-10-15T18:46:54.804Z,100.00
2022-10-15T18:49:22.936Z,100.00
2022-10-15T18:51:52.882Z,100.00
2022-10-15T18:54:21.487Z,100.00
2022-10-15T18:56:49.695Z,100.00
2022-10-15T18:59:17.593Z,100.00
2022-10-15T19:01:45.656Z,100.00
2022-10-15T19:04:17.485Z,100.00
2022-10-15T19:06:47.521Z,100.00
2022-10-15T19:09:18.823Z,100.00
2022-10-15T19:11:49.481Z,100.00
2022-10-15T19:14:18.094Z,100.00
2022-10-15T19:16:46.780Z,100.00
2022-10-15T19:19:18.291Z,100.00
2022-10-15T19:21:47.524Z,100.00
2022-10-15T19:24:16.868Z,100.00
2022-10-15T19:26:44.873Z,100.00
2022-10-15T19:29:13.060Z,100.00
2022-10-15T19:31:42.635Z,100.00
2022-10-15T19:34:10.988Z,100.00
2022-10-15T19:36:43.360Z,100.00
2022-10-15T19:39:14.667Z,100.00
2022-10-15T19:41:44.151Z,100.00
2022-10-15T19:44:14.006Z,100.00
2022-10-15T19:46:42.039Z,100.00
2022-10-15T19:49:12.374Z,100.00
2022-10-15T19:51:41.769Z,100.00
2022-10-15T19:54:10.171Z,100.00
2022-10-15T19:56:38.062Z,100.00
2022-10-15T19:59:07.356Z,100.00
2022-10-15T20:01:35.647Z,100.00
2022-10-15T20:04:06.459Z,100.00
2022-10-15T20:06:36.131Z,100.00
2022-10-15T20:09:05.973Z,100.00
2022-10-15T20:11:34.191Z,100.00
2022-10-15T20:14:02.685Z,100.00
2022-10-15T20:16:33.190Z,100.00
2022-10-15T20:19:02.734Z,100.00
2022-10-15T20:21:30.818Z,100.00
2022-10-15T20:23:58.940Z,100.00
2022-10-15T20:26:28.207Z,100.00
2022-10-15T20:28:56.120Z,100.00
2022-10-15T20:31:28.545Z,100.00
2022-10-15T20:33:56.443Z,100.00
2022-10-15T20:36:27.340Z,100.00
2022-10-15T20:38:57.400Z,100.00
2022-10-15T20:41:25.813Z,100.00
2022-10-15T20:43:57.199Z,100.00
2022-10-15T20:46:28.840Z,100.00
2022-10-15T20:49:02.167Z,100.00
2022-10-15T20:51:33.120Z,100.00
2022-10-15T20:54:01.407Z,100.00
2022-10-15T20:56:29.569Z,100.00
2022-10-15T20:58:59.008Z,100.00
2022-10-15T21:01:26.892Z,100.00
2022-10-15T21:03:54.804Z,100.00
2022-10-15T21:06:22.855Z,100.00
2022-10-15T21:08:50.774Z,100.00
2022-10-15T21:11:18.662Z,100.00
2022-10-15T21:13:46.549Z,100.00
2022-10-15T21:16:15.868Z,100.00
2022-10-15T21:18:43.826Z,100.00
2022-10-15T21:21:13.600Z,100.00
2022-10-15T21:23:42.988Z,100.00
2022-10-15T21:26:13.381Z,100.00
2022-10-15T21:28:41.782Z,100.00
2022-10-15T21:31:11.327Z,100.00
2022-10-15T21:33:41.338Z,100.00
2022-10-15T21:36:14.216Z,100.00
2022-10-15T21:38:42.893Z,100.00
2022-10-15T21:41:10.877Z,100.00
2022-10-15T21:43:38.829Z,100.00
2022-10-15T21:46:09.101Z,100.00
2022-10-15T21:48:37.587Z,100.00
2022-10-15T21:51:10.487Z,100.00
2022-10-15T21:53:38.350Z,100.00
2022-10-15T21:56:08.085Z,100.00
2022-10-15T21:58:37.970Z,100.00
2022-10-15T22:01:10.263Z,100.00
2022-10-15T22:03:38.677Z,100.00
2022-10-15T22:06:09.446Z,100.00
2022-10-15T22:08:38.754Z,100.00
2022-10-15T22:11:12.653Z,100.00
2022-10-15T22:13:41.422Z,100.00
2022-10-15T22:16:10.749Z,100.00
2022-10-15T22:18:39.064Z,100.00
2022-10-15T22:21:15.768Z,100.00
2022-10-15T22:23:44.687Z,100.00
2022-10-15T22:26:13.389Z,100.00
2022-10-15T22:28:42.572Z,100.00
2022-10-15T22:31:13.847Z,100.00
2022-10-15T22:33:41.828Z,100.00
2022-10-15T22:36:16.647Z,100.00
2022-10-15T22:38:46.720Z,100.00
2022-10-15T22:41:18.076Z,100.00
2022-10-15T22:43:45.941Z,100.00
2022-10-15T22:46:14.288Z,100.00
2022-10-15T22:48:49.501Z,100.00
2022-10-15T22:51:18.828Z,100.00
2022-10-15T22:53:46.701Z,100.00
2022-10-15T22:56:16.942Z,100.00
2022-10-15T22:58:46.761Z,100.00
2022-10-15T23:01:16.344Z,100.00
2022-10-15T23:03:46.401Z,100.00
2022-10-15T23:06:15.386Z,100.00
2022-10-15T23:08:45.293Z,100.00
2022-10-15T23:11:15.592Z,100.00
2022-10-15T23:13:44.711Z,100.00
2022-10-15T23:16:15.076Z,100.00
2022-10-15T23:18:47.697Z,100.00
2022-10-15T23:21:20.102Z,100.00
2022-10-15T23:23:50.453Z,100.00
2022-10-15T23:26:23.703Z,100.00
2022-10-15T23:28:53.837Z,100.00
2022-10-15T23:31:25.718Z,100.00
2022-10-15T23:34:05.002Z,100.00
2022-10-15T23:36:38.684Z,100.00
2022-10-15T23:39:16.258Z,100.00
2022-10-15T23:41:46.402Z,100.00
2022-10-15T23:44:14.969Z,100.00
2022-10-15T23:46:43.423Z,100.00
2022-10-15T23:51:57.875Z,100.00
2022-10-15T23:54:27.228Z,100.00
2022-10-15T23:56:55.130Z,100.00
2022-10-15T23:59:25.900Z,100.00
